createdAt,value
2023-01-31T00:01:08.705Z,1.08
2023-01-31T00:03:36.541Z,1.30
2023-01-31T00:06:16.617Z,1.20
2023-01-31T00:08:44.472Z,1.20
2023-01-31T00:11:12.458Z,1.10
2023-01-31T00:13:40.209Z,1.10
2023-01-31T00:16:08.275Z,1.02
2023-01-31T00:18:36.086Z,1.15
2023-01-31T00:21:10.721Z,1.27
2023-01-31T00:23:40.100Z,1.20
2023-01-31T00:26:11.833Z,1.05
2023-01-31T00:28:39.818Z,1.20
2023-01-31T00:31:10.854Z,1.17
2023-01-31T00:33:38.993Z,1.35
2023-01-31T00:36:07.231Z,1.10
2023-01-31T00:38:34.967Z,1.20
2023-01-31T00:41:04.803Z,1.00
2023-01-31T00:43:34.743Z,1.20
2023-01-31T00:46:03.154Z,1.15
2023-01-31T00:48:30.909Z,1.10
2023-01-31T00:50:58.579Z,1.20
2023-01-31T00:53:26.239Z,1.20
2023-01-31T00:55:55.530Z,1.20
2023-01-31T00:58:24.730Z,1.33
2023-01-31T01:00:52.511Z,1.17
2023-01-31T01:03:20.749Z,0.98
2023-01-31T01:05:48.445Z,1.15
2023-01-31T01:08:16.916Z,1.30
2023-01-31T01:10:45.647Z,1.08
2023-01-31T01:13:13.480Z,1.15
2023-01-31T01:15:44.549Z,1.00
2023-01-31T01:18:12.247Z,1.10
2023-01-31T01:20:39.980Z,0.93
2023-01-31T01:23:07.649Z,1.23
2023-01-31T01:25:43.044Z,1.08
2023-01-31T01:28:10.892Z,1.20
2023-01-31T01:30:38.832Z,1.05
2023-01-31T01:33:08.847Z,0.98
2023-01-31T01:35:39.029Z,1.20
2023-01-31T01:38:06.738Z,0.85
2023-01-31T01:40:37.329Z,0.95
2023-01-31T01:43:05.200Z,1.33
2023-01-31T01:45:33.001Z,1.00
2023-01-31T01:48:01.810Z,1.15
2023-01-31T01:50:31.549Z,1.05
2023-01-31T01:53:01.920Z,1.30
2023-01-31T01:55:31.731Z,1.17
2023-01-31T01:58:01.753Z,1.20
2023-01-31T02:00:30.061Z,1.00
2023-01-31T02:03:00.087Z,1.00
2023-01-31T02:05:32.012Z,1.20
2023-01-31T02:08:00.027Z,1.13
2023-01-31T02:10:29.281Z,1.27
2023-01-31T02:12:57.022Z,1.20
2023-01-31T02:15:24.767Z,1.33
2023-01-31T02:17:54.074Z,1.00
2023-01-31T02:20:56.799Z,1.25
2023-01-31T02:23:55.553Z,1.17
2023-01-31T02:26:51.816Z,1.00
2023-01-31T02:29:28.962Z,0.90
2023-01-31T02:32:20.131Z,1.10
2023-01-31T02:34:50.944Z,0.95
2023-01-31T02:37:22.684Z,0.93
2023-01-31T02:39:57.536Z,1.15
2023-01-31T02:42:28.979Z,1.25
2023-01-31T02:44:59.210Z,1.10
2023-01-31T02:47:33.195Z,1.00
2023-01-31T02:50:03.523Z,0.88
2023-01-31T02:52:35.014Z,1.17
2023-01-31T02:55:29.415Z,1.00
2023-01-31T02:57:58.736Z,1.05
2023-01-31T03:00:26.546Z,1.00
2023-01-31T03:02:56.327Z,1.20
2023-01-31T03:05:24.562Z,1.25
2023-01-31T03:07:53.673Z,1.00
2023-01-31T03:10:31.185Z,1.10
2023-01-31T03:13:03.456Z,0.80
2023-01-31T03:16:09.624Z,1.20
2023-01-31T03:18:43.101Z,1.15
2023-01-31T03:21:11.349Z,0.90
2023-01-31T03:23:39.050Z,1.27
2023-01-31T03:26:07.527Z,1.00
2023-01-31T03:28:37.027Z,1.05
2023-01-31T03:31:06.578Z,0.93
2023-01-31T03:33:36.649Z,1.00
2023-01-31T03:36:10.651Z,1.00
2023-01-31T03:38:40.192Z,1.10
2023-01-31T03:41:11.217Z,1.00
2023-01-31T03:43:40.624Z,0.90
2023-01-31T03:46:09.286Z,1.10
2023-01-31T03:48:39.917Z,1.17
2023-01-31T03:51:10.038Z,1.00
2023-01-31T03:53:39.540Z,1.15
2023-01-31T03:56:10.333Z,1.00
2023-01-31T03:58:41.485Z,1.10
2023-01-31T04:01:09.285Z,0.90
2023-01-31T04:03:38.680Z,1.20
2023-01-31T04:06:06.729Z,1.20
2023-01-31T04:08:37.080Z,1.05
2023-01-31T04:11:10.628Z,1.00
2023-01-31T04:13:38.367Z,0.93
2023-01-31T04:16:06.758Z,1.10
2023-01-31T04:18:37.442Z,0.93
2023-01-31T04:21:06.449Z,1.00
2023-01-31T04:23:34.131Z,0.95
2023-01-31T04:26:03.311Z,1.00
2023-01-31T04:28:30.988Z,1.10
2023-01-31T04:30:58.796Z,0.93
2023-01-31T04:33:26.562Z,1.00
2023-01-31T04:35:54.373Z,0.90
2023-01-31T04:38:22.064Z,1.10
2023-01-31T04:40:49.775Z,1.20
2023-01-31T04:43:18.849Z,1.00
2023-01-31T04:45:46.611Z,1.02
2023-01-31T04:48:14.336Z,0.98
2023-01-31T04:50:42.033Z,0.98
2023-01-31T04:53:09.769Z,1.08
2023-01-31T04:55:37.485Z,1.20
2023-01-31T04:58:06.758Z,1.08
2023-01-31T05:00:36.584Z,1.00
2023-01-31T05:03:04.514Z,0.90
2023-01-31T05:05:36.138Z,1.00
2023-01-31T05:08:04.076Z,1.05
2023-01-31T05:10:31.769Z,0.90
2023-01-31T05:12:59.469Z,1.10
2023-01-31T05:15:27.185Z,1.00
2023-01-31T05:18:02.548Z,0.90
2023-01-31T05:20:31.421Z,0.93
2023-01-31T05:22:59.229Z,1.20
2023-01-31T05:25:26.974Z,1.00
2023-01-31T05:27:54.836Z,0.90
2023-01-31T05:30:24.225Z,1.08
2023-01-31T05:32:52.457Z,0.90
2023-01-31T05:35:21.872Z,1.00
2023-01-31T05:37:49.712Z,1.00
2023-01-31T05:40:18.337Z,1.40
2023-01-31T05:42:46.024Z,0.90
2023-01-31T05:45:16.638Z,0.95
2023-01-31T05:47:44.457Z,1.20
2023-01-31T05:50:12.851Z,0.80
2023-01-31T05:52:41.946Z,1.00
2023-01-31T05:55:10.307Z,1.00
2023-01-31T05:57:38.018Z,1.13
2023-01-31T06:00:06.528Z,0.80
2023-01-31T06:02:39.450Z,1.15
2023-01-31T06:05:07.668Z,1.08
2023-01-31T06:07:35.435Z,1.10
2023-01-31T06:10:04.924Z,1.20
2023-01-31T06:12:33.118Z,1.17
2023-01-31T06:15:00.899Z,0.88
2023-01-31T06:17:30.370Z,0.80
2023-01-31T06:19:58.243Z,1.00
2023-01-31T06:22:25.983Z,1.00
2023-01-31T06:24:53.662Z,1.23
2023-01-31T06:27:22.724Z,0.90
2023-01-31T06:29:50.429Z,1.00
2023-01-31T06:32:18.161Z,1.20
2023-01-31T06:34:45.919Z,1.10
2023-01-31T06:37:13.634Z,1.08
2023-01-31T06:39:41.341Z,1.20
2023-01-31T06:42:09.059Z,0.90
2023-01-31T06:44:38.403Z,1.05
2023-01-31T06:47:06.287Z,1.00
2023-01-31T06:49:34.036Z,0.90
2023-01-31T06:52:01.734Z,0.90
2023-01-31T06:54:29.453Z,1.05
2023-01-31T06:56:57.130Z,1.00
2023-01-31T06:59:24.864Z,1.02
2023-01-31T07:01:54.600Z,0.90
2023-01-31T07:04:22.569Z,0.95
2023-01-31T07:06:50.288Z,1.08
2023-01-31T07:09:18.098Z,1.00
2023-01-31T07:11:45.770Z,1.10
2023-01-31T07:14:13.488Z,1.00
2023-01-31T07:16:41.199Z,1.08
2023-01-31T07:19:10.308Z,1.00
2023-01-31T07:21:37.997Z,0.90
2023-01-31T07:24:06.370Z,1.00
2023-01-31T07:26:34.939Z,1.10
2023-01-31T07:29:02.715Z,0.90
2023-01-31T07:31:30.723Z,1.30
2023-01-31T07:33:58.857Z,1.13
2023-01-31T07:36:27.906Z,0.93
2023-01-31T07:38:56.415Z,1.23
2023-01-31T07:41:24.247Z,1.02
2023-01-31T07:43:52.081Z,1.00
2023-01-31T07:46:20.203Z,1.30
2023-01-31T07:48:48.303Z,1.23
2023-01-31T07:51:16.035Z,0.90
2023-01-31T07:53:45.065Z,1.00
2023-01-31T07:56:14.018Z,1.25
2023-01-31T07:58:42.597Z,0.88
2023-01-31T08:01:29.941Z,1.10
2023-01-31T08:03:58.116Z,1.00
2023-01-31T08:06:27.332Z,1.10
2023-01-31T08:08:56.361Z,1.05
2023-01-31T08:11:24.126Z,1.15
2023-01-31T08:13:51.923Z,1.15
2023-01-31T08:16:20.913Z,1.10
2023-01-31T08:18:48.841Z,1.20
2023-01-31T08:21:16.724Z,0.95
2023-01-31T08:23:44.982Z,1.20
2023-01-31T08:26:15.581Z,1.10
2023-01-31T08:28:43.930Z,1.20
2023-01-31T08:31:13.461Z,0.98
2023-01-31T08:33:41.283Z,1.10
2023-01-31T08:36:10.349Z,1.30
2023-01-31T08:38:38.535Z,0.90
2023-01-31T08:41:06.454Z,1.10
2023-01-31T08:43:53.805Z,1.08
2023-01-31T08:46:23.680Z,1.05
2023-01-31T08:48:51.465Z,1.00
2023-01-31T08:51:19.176Z,1.27
2023-01-31T08:53:46.876Z,1.00
2023-01-31T08:56:15.058Z,1.10
2023-01-31T08:58:44.599Z,1.30
2023-01-31T09:01:13.197Z,1.02
2023-01-31T09:03:43.081Z,1.48
2023-01-31T09:06:13.673Z,1.30
2023-01-31T09:08:41.415Z,1.10
2023-01-31T09:11:09.224Z,1.30
2023-01-31T09:13:37.252Z,1.20
2023-01-31T09:16:11.282Z,1.08
2023-01-31T09:18:39.897Z,1.20
2023-01-31T09:21:07.959Z,1.10
2023-01-31T09:23:35.794Z,1.10
2023-01-31T09:26:03.600Z,1.10
2023-01-31T09:28:31.385Z,1.10
2023-01-31T09:31:03.882Z,1.27
2023-01-31T09:33:33.732Z,1.60
2023-01-31T09:36:02.250Z,0.90
2023-01-31T09:38:29.939Z,1.23
2023-01-31T09:40:57.927Z,1.10
2023-01-31T09:43:26.887Z,1.30
2023-01-31T09:45:54.729Z,1.10
2023-01-31T09:48:25.205Z,1.30
2023-01-31T09:50:56.039Z,1.25
2023-01-31T09:53:24.581Z,1.17
2023-01-31T09:55:55.327Z,1.10
2023-01-31T09:58:27.693Z,1.50
2023-01-31T10:00:58.791Z,1.20
2023-01-31T10:03:33.329Z,1.20
2023-01-31T10:06:04.840Z,1.00
2023-01-31T10:08:41.060Z,1.27
2023-01-31T10:11:12.631Z,1.15
2023-01-31T10:13:42.666Z,1.17
2023-01-31T10:16:15.588Z,1.00
2023-01-31T10:18:44.194Z,1.10
2023-01-31T10:21:14.373Z,1.40
2023-01-31T10:23:43.427Z,1.20
2023-01-31T10:26:14.735Z,1.00
2023-01-31T10:28:43.858Z,1.20
2023-01-31T10:31:14.328Z,1.02
2023-01-31T10:33:45.115Z,1.23
2023-01-31T10:36:16.235Z,1.20
2023-01-31T10:38:50.657Z,1.25
2023-01-31T10:41:19.713Z,1.30
2023-01-31T10:43:50.169Z,1.20
2023-01-31T10:46:17.913Z,1.35
2023-01-31T10:48:47.479Z,1.15
2023-01-31T10:51:26.569Z,1.40
2023-01-31T10:54:18.854Z,1.10
2023-01-31T10:56:48.224Z,1.10
2023-01-31T10:59:21.696Z,1.02
2023-01-31T11:01:49.425Z,1.17
2023-01-31T11:04:24.601Z,1.30
2023-01-31T11:06:54.018Z,1.17
2023-01-31T11:09:22.095Z,1.20
2023-01-31T11:11:54.906Z,1.20
2023-01-31T11:14:22.703Z,1.65
2023-01-31T11:16:51.142Z,1.15
2023-01-31T11:19:20.779Z,1.10
2023-01-31T11:21:50.092Z,1.00
2023-01-31T11:24:21.568Z,1.27
2023-01-31T11:26:52.339Z,1.08
2023-01-31T11:29:23.227Z,1.27
2023-01-31T11:31:50.983Z,1.00
2023-01-31T11:34:23.353Z,1.05
2023-01-31T11:36:51.103Z,1.15
2023-01-31T11:39:27.790Z,1.17
2023-01-31T11:41:55.493Z,1.27
2023-01-31T11:44:23.772Z,1.33
2023-01-31T11:46:53.549Z,1.00
2023-01-31T11:49:24.363Z,1.33
2023-01-31T11:51:52.053Z,1.30
2023-01-31T11:54:22.526Z,1.10
2023-01-31T11:56:51.598Z,1.10
2023-01-31T11:59:21.302Z,1.10
2023-01-31T12:01:50.272Z,1.00
2023-01-31T12:04:19.660Z,1.20
2023-01-31T12:06:57.458Z,1.05
2023-01-31T12:09:26.319Z,1.08
2023-01-31T12:11:56.720Z,1.20
2023-01-31T12:14:25.319Z,1.02
2023-01-31T12:16:55.621Z,1.00
2023-01-31T12:19:30.718Z,1.13
2023-01-31T12:22:02.918Z,1.15
2023-01-31T12:24:38.811Z,1.10
2023-01-31T12:27:15.354Z,1.30
2023-01-31T12:29:55.410Z,1.25
2023-01-31T12:32:33.505Z,1.02
2023-01-31T12:35:17.987Z,1.00
2023-01-31T12:37:50.706Z,1.20
2023-01-31T12:40:30.675Z,1.00
2023-01-31T12:43:00.976Z,0.98
2023-01-31T12:45:44.846Z,1.00
2023-01-31T12:48:28.713Z,1.13
2023-01-31T12:50:59.023Z,0.93
2023-01-31T12:53:34.699Z,0.95
2023-01-31T12:56:21.186Z,1.05
2023-01-31T12:59:02.980Z,1.00
2023-01-31T13:01:39.150Z,1.13
2023-01-31T13:04:18.409Z,0.80
2023-01-31T13:06:47.625Z,0.80
2023-01-31T13:09:19.130Z,0.90
2023-01-31T13:11:49.069Z,1.00
2023-01-31T13:14:20.771Z,0.82
2023-01-31T13:16:49.677Z,1.00
2023-01-31T13:19:20.365Z,0.98
2023-01-31T13:21:49.748Z,1.00
2023-01-31T13:24:18.989Z,1.00
2023-01-31T13:26:47.758Z,0.73
2023-01-31T13:29:17.614Z,1.08
2023-01-31T13:31:47.919Z,1.10
2023-01-31T13:34:18.452Z,0.90
2023-01-31T13:36:47.857Z,0.70
2023-01-31T13:39:28.910Z,0.90
2023-01-31T13:41:56.592Z,0.95
2023-01-31T13:44:24.259Z,0.98
2023-01-31T13:46:54.766Z,0.95
2023-01-31T13:49:25.340Z,1.00
2023-01-31T13:51:54.690Z,0.90
2023-01-31T13:54:24.075Z,0.90
2023-01-31T13:56:53.406Z,0.90
2023-01-31T13:59:22.881Z,0.93
2023-01-31T14:01:51.133Z,1.02
2023-01-31T14:04:31.439Z,1.10
2023-01-31T14:07:17.993Z,0.90
2023-01-31T14:09:47.025Z,1.05
2023-01-31T14:12:34.530Z,1.00
2023-01-31T14:15:02.501Z,1.17
2023-01-31T14:17:58.621Z,0.90
2023-01-31T14:20:30.344Z,0.90
2023-01-31T14:23:29.825Z,0.80
2023-01-31T14:25:57.595Z,0.77
2023-01-31T14:28:26.515Z,0.90
2023-01-31T14:30:54.749Z,1.00
2023-01-31T14:33:29.035Z,0.80
2023-01-31T14:36:36.325Z,0.77
2023-01-31T14:39:56.721Z,0.77
2023-01-31T14:42:52.436Z,1.08
2023-01-31T14:45:40.635Z,0.73
2023-01-31T14:48:19.798Z,0.88
2023-01-31T14:50:55.223Z,1.00
2023-01-31T14:53:40.323Z,0.90
2023-01-31T14:56:15.617Z,0.65
2023-01-31T14:58:44.350Z,0.90
2023-01-31T15:01:12.942Z,0.85
2023-01-31T15:03:48.690Z,0.80
2023-01-31T15:06:18.400Z,0.80
2023-01-31T15:08:47.839Z,0.80
2023-01-31T15:11:42.603Z,0.80
2023-01-31T15:14:44.867Z,1.02
2023-01-31T15:17:31.590Z,0.88
2023-01-31T15:20:04.685Z,0.90
2023-01-31T15:22:32.362Z,0.90
2023-01-31T15:25:09.477Z,0.80
2023-01-31T15:27:39.136Z,0.73
2023-01-31T15:30:09.361Z,0.90
2023-01-31T15:32:40.512Z,0.80
2023-01-31T15:35:13.921Z,0.90
2023-01-31T15:37:41.604Z,1.00
2023-01-31T15:40:18.388Z,0.90
2023-01-31T15:42:46.128Z,0.80
2023-01-31T15:45:15.685Z,0.80
2023-01-31T15:47:43.357Z,1.08
2023-01-31T15:50:16.281Z,1.00
2023-01-31T15:52:44.010Z,1.05
2023-01-31T15:55:15.089Z,0.80
2023-01-31T15:57:45.860Z,1.00
2023-01-31T16:00:19.873Z,1.05
2023-01-31T16:02:47.640Z,1.02
2023-01-31T16:05:19.265Z,0.95
2023-01-31T16:07:47.711Z,0.90
2023-01-31T16:10:16.836Z,0.98
2023-01-31T16:12:47.672Z,0.85
2023-01-31T16:15:18.108Z,0.95
2023-01-31T16:17:46.024Z,1.05
2023-01-31T16:20:35.630Z,0.90
2023-01-31T16:23:03.571Z,0.98
2023-01-31T16:25:33.998Z,0.95
2023-01-31T16:28:05.349Z,0.85
2023-01-31T16:30:34.690Z,1.33
2023-01-31T16:33:02.462Z,1.15
2023-01-31T16:35:30.446Z,1.08
2023-01-31T16:38:03.453Z,1.00
2023-01-31T16:40:34.330Z,1.00
2023-01-31T16:43:10.067Z,0.95
2023-01-31T16:45:37.763Z,0.98
2023-01-31T16:48:22.469Z,1.20
2023-01-31T16:50:50.345Z,1.02
2023-01-31T16:53:28.958Z,1.10
2023-01-31T16:56:23.229Z,0.82
2023-01-31T16:58:55.416Z,1.00
2023-01-31T17:01:25.329Z,1.08
2023-01-31T17:04:03.856Z,0.93
2023-01-31T17:06:31.695Z,0.95
2023-01-31T17:08:59.375Z,0.90
2023-01-31T17:11:41.598Z,0.90
2023-01-31T17:14:10.615Z,1.08
2023-01-31T17:16:38.318Z,1.20
2023-01-31T17:19:06.014Z,1.00
2023-01-31T17:21:35.710Z,1.05
2023-01-31T17:24:03.390Z,0.95
2023-01-31T17:26:32.618Z,1.23
2023-01-31T17:29:02.300Z,0.95
2023-01-31T17:31:31.250Z,0.90
2023-01-31T17:33:59.134Z,1.20
2023-01-31T17:36:26.866Z,1.30
2023-01-31T17:38:54.586Z,0.95
2023-01-31T17:41:24.384Z,1.20
2023-01-31T17:43:53.446Z,1.10
2023-01-31T17:46:21.356Z,1.10
2023-01-31T17:48:49.095Z,1.08
2023-01-31T17:51:16.879Z,1.10
2023-01-31T17:53:49.899Z,1.00
2023-01-31T17:56:18.285Z,1.20
2023-01-31T17:58:45.967Z,1.13
2023-01-31T18:01:15.090Z,1.08
2023-01-31T18:03:43.002Z,0.90
2023-01-31T18:06:10.837Z,0.93
2023-01-31T18:08:38.651Z,0.95
2023-01-31T18:11:06.710Z,1.23
2023-01-31T18:13:35.944Z,0.93
2023-01-31T18:16:04.520Z,1.27
2023-01-31T18:18:33.606Z,1.08
2023-01-31T18:21:02.375Z,1.20
2023-01-31T18:23:30.135Z,1.00
2023-01-31T18:25:57.797Z,1.20
2023-01-31T18:28:25.485Z,1.20
2023-01-31T18:30:53.200Z,1.30
2023-01-31T18:33:20.896Z,1.00
2023-01-31T18:35:58.095Z,1.10
2023-01-31T18:38:25.936Z,1.30
2023-01-31T18:40:53.622Z,1.00
2023-01-31T18:43:21.414Z,0.98
2023-01-31T18:45:49.093Z,1.05
2023-01-31T18:48:16.846Z,1.20
2023-01-31T18:50:44.535Z,1.33
2023-01-31T18:53:13.533Z,1.30
2023-01-31T18:55:41.241Z,1.08
2023-01-31T18:58:08.893Z,1.38
2023-01-31T19:00:36.565Z,1.38
2023-01-31T19:03:04.316Z,1.10
2023-01-31T19:05:32.011Z,1.20
2023-01-31T19:07:59.694Z,1.42
2023-01-31T19:10:28.726Z,1.15
2023-01-31T19:12:56.407Z,1.30
2023-01-31T19:15:24.059Z,1.60
2023-01-31T19:17:51.728Z,1.20
2023-01-31T19:20:19.699Z,1.17
2023-01-31T19:22:47.385Z,1.23
2023-01-31T19:25:15.195Z,1.38
2023-01-31T19:27:44.207Z,1.45
2023-01-31T19:30:13.162Z,1.30
2023-01-31T19:32:40.826Z,1.30
2023-01-31T19:35:09.437Z,1.40
2023-01-31T19:37:37.184Z,1.35
2023-01-31T19:40:05.267Z,1.50
2023-01-31T19:42:33.027Z,1.20
2023-01-31T19:45:02.088Z,1.23
2023-01-31T19:47:29.867Z,1.38
2023-01-31T19:49:57.709Z,1.30
2023-01-31T19:52:25.379Z,1.30
2023-01-31T19:54:54.075Z,1.30
2023-01-31T19:57:21.776Z,1.20
2023-01-31T19:59:49.645Z,1.55
2023-01-31T20:02:18.703Z,1.70
2023-01-31T20:04:46.477Z,1.25
2023-01-31T20:07:14.226Z,1.30
2023-01-31T20:09:41.935Z,1.30
2023-01-31T20:12:09.646Z,1.52
2023-01-31T20:14:37.402Z,1.30
2023-01-31T20:17:05.160Z,1.30
2023-01-31T20:19:34.149Z,1.52
2023-01-31T20:22:01.900Z,1.40
2023-01-31T20:24:29.586Z,1.55
2023-01-31T20:26:59.510Z,1.48
2023-01-31T20:29:28.595Z,1.40
2023-01-31T20:31:56.424Z,1.70
2023-01-31T20:34:24.559Z,1.60
2023-01-31T20:36:53.664Z,1.63
2023-01-31T20:39:21.821Z,1.60
2023-01-31T20:41:49.541Z,1.45
2023-01-31T20:44:17.448Z,1.38
2023-01-31T20:46:45.137Z,1.45
2023-01-31T20:49:12.837Z,1.40
2023-01-31T20:51:40.558Z,1.63
2023-01-31T20:54:09.604Z,1.73
2023-01-31T20:56:37.349Z,1.73
2023-01-31T20:59:05.083Z,1.48
2023-01-31T21:01:32.872Z,1.88
2023-01-31T21:04:00.758Z,1.40
2023-01-31T21:06:28.476Z,1.17
2023-01-31T21:08:56.293Z,1.42
2023-01-31T21:11:25.422Z,1.50
2023-01-31T21:13:53.156Z,1.20
2023-01-31T21:16:21.470Z,1.48
2023-01-31T21:18:49.177Z,1.67
2023-01-31T21:21:23.132Z,1.45
2023-01-31T21:23:51.228Z,1.50
2023-01-31T21:26:20.272Z,1.55
2023-01-31T21:28:49.359Z,1.50
2023-01-31T21:31:20.817Z,1.38
2023-01-31T21:33:49.260Z,1.60
2023-01-31T21:36:18.137Z,1.65
2023-01-31T21:38:45.900Z,1.35
2023-01-31T21:41:31.368Z,1.50
2023-01-31T21:44:00.433Z,1.92
2023-01-31T21:46:28.419Z,1.45
2023-01-31T21:48:56.263Z,1.67
2023-01-31T21:51:26.002Z,1.80
2023-01-31T21:53:54.010Z,1.83
2023-01-31T21:56:22.650Z,1.35
2023-01-31T21:58:50.612Z,1.40
2023-01-31T22:01:20.587Z,1.30
2023-01-31T22:03:49.294Z,1.60
2023-01-31T22:06:17.941Z,1.60
2023-01-31T22:08:45.650Z,1.63
2023-01-31T22:11:14.409Z,1.45
2023-01-31T22:13:44.258Z,1.60
2023-01-31T22:16:12.348Z,1.77
2023-01-31T22:18:42.018Z,1.47
2023-01-31T22:21:10.445Z,1.92
2023-01-31T22:23:38.827Z,1.45
2023-01-31T22:26:07.221Z,1.52
2023-01-31T22:28:35.313Z,1.67
2023-01-31T22:31:03.743Z,1.75
2023-01-31T22:33:31.880Z,2.00
2023-01-31T22:36:00.944Z,1.70
2023-01-31T22:38:28.657Z,1.63
2023-01-31T22:40:57.994Z,1.70
2023-01-31T22:43:25.829Z,1.80
2023-01-31T22:45:54.653Z,1.85
2023-01-31T22:48:23.674Z,1.50
2023-01-31T22:50:54.593Z,1.60
2023-01-31T22:53:23.605Z,1.75
2023-01-31T22:55:51.367Z,1.48
2023-01-31T22:58:19.851Z,1.38
2023-01-31T23:00:48.049Z,1.75
2023-01-31T23:03:15.881Z,1.48
2023-01-31T23:05:43.680Z,1.45
2023-01-31T23:08:11.473Z,1.50
2023-01-31T23:10:40.831Z,1.55
2023-01-31T23:13:08.729Z,1.50
2023-01-31T23:15:36.588Z,1.70
2023-01-31T23:18:04.639Z,1.52
2023-01-31T23:20:33.157Z,1.52
2023-01-31T23:23:00.877Z,1.70
2023-01-31T23:25:29.671Z,1.70
2023-01-31T23:27:58.902Z,1.75
2023-01-31T23:30:26.630Z,1.67
2023-01-31T23:32:54.425Z,1.67
2023-01-31T23:35:22.140Z,1.70
2023-01-31T23:37:49.867Z,1.67
2023-01-31T23:40:17.854Z,1.73
2023-01-31T23:42:45.557Z,1.90
2023-01-31T23:45:14.640Z,1.73
2023-01-31T23:47:44.560Z,1.83
2023-01-31T23:50:12.648Z,1.40
2023-01-31T23:52:40.367Z,1.75
2023-01-31T23:55:08.716Z,1.63
2023-01-31T23:57:36.419Z,1.42
